createdAt,value
2019-06-20T00:00:14.346Z,0.00
2019-06-20T00:01:14.313Z,0.00
2019-06-20T00:02:14.302Z,0.00
2019-06-20T00:03:14.279Z,0.00
2019-06-20T00:04:14.283Z,0.00
2019-06-20T00:05:14.295Z,0.00
2019-06-20T00:06:14.247Z,0.00
2019-06-20T00:07:14.254Z,0.00
2019-06-20T00:08:14.229Z,0.00
2019-06-20T00:09:14.218Z,0.00
2019-06-20T00:10:14.205Z,0.00
2019-06-20T00:11:14.240Z,0.00
2019-06-20T00:12:14.201Z,0.00
2019-06-20T00:13:14.178Z,0.00
2019-06-20T00:14:14.168Z,0.00
2019-06-20T00:15:14.172Z,0.00
2019-06-20T00:16:14.156Z,0.00
2019-06-20T00:17:14.157Z,0.00
2019-06-20T00:18:14.123Z,0.00
2019-06-20T00:19:14.177Z,0.00
2019-06-20T00:20:14.112Z,0.00
2019-06-20T00:21:14.089Z,0.00
2019-06-20T00:22:14.116Z,0.00
2019-06-20T00:23:14.083Z,0.00
2019-06-20T00:24:14.060Z,0.00
2019-06-20T00:25:14.062Z,0.00
2019-06-20T00:26:14.049Z,0.00
2019-06-20T00:27:14.041Z,0.00
2019-06-20T00:28:14.056Z,0.00
2019-06-20T00:29:14.037Z,0.00
2019-06-20T00:30:13.989Z,0.00
2019-06-20T00:31:13.995Z,0.00
2019-06-20T00:32:13.962Z,0.00
2019-06-20T00:33:13.959Z,0.00
2019-06-20T00:34:13.969Z,0.00
2019-06-20T00:35:13.968Z,0.00
2019-06-20T00:36:13.954Z,0.00
2019-06-20T00:37:13.931Z,0.00
2019-06-20T00:38:13.903Z,0.00
2019-06-20T00:39:13.893Z,0.00
2019-06-20T00:40:13.876Z,0.00
2019-06-20T00:41:13.872Z,0.00
2019-06-20T00:42:13.899Z,0.00
2019-06-20T00:43:17.794Z,0.00
2019-06-20T00:44:13.840Z,0.00
2019-06-20T00:45:13.824Z,0.00
2019-06-20T00:46:13.825Z,0.00
2019-06-20T00:47:13.819Z,0.00
2019-06-20T00:48:13.882Z,0.00
2019-06-20T00:49:13.779Z,0.00
2019-06-20T00:50:13.778Z,0.00
2019-06-20T00:51:13.770Z,0.00
2019-06-20T00:52:13.786Z,0.00
2019-06-20T00:53:13.750Z,0.00
2019-06-20T00:54:13.726Z,0.00
2019-06-20T00:55:13.708Z,0.00
2019-06-20T00:56:13.722Z,0.00
2019-06-20T00:57:13.699Z,0.00
2019-06-20T00:58:13.733Z,0.00
2019-06-20T00:59:13.670Z,0.00
2019-06-20T01:00:13.675Z,0.00
2019-06-20T01:01:13.647Z,0.00
2019-06-20T01:02:13.657Z,0.00
2019-06-20T01:03:13.631Z,0.00
2019-06-20T01:04:13.663Z,0.00
2019-06-20T01:05:13.645Z,0.00
2019-06-20T01:06:13.596Z,0.00
2019-06-20T01:07:13.579Z,0.00
2019-06-20T01:08:13.574Z,0.00
2019-06-20T01:09:13.582Z,0.00
2019-06-20T01:10:13.567Z,0.00
2019-06-20T01:11:13.567Z,0.00
2019-06-20T01:12:13.533Z,0.00
2019-06-20T01:13:13.513Z,0.00
2019-06-20T01:14:13.514Z,0.00
2019-06-20T01:15:13.505Z,0.00
2019-06-20T01:16:13.486Z,0.00
2019-06-20T01:17:13.572Z,0.00
2019-06-20T01:18:13.463Z,0.00
2019-06-20T01:19:13.453Z,0.00
2019-06-20T01:20:13.439Z,0.00
2019-06-20T01:21:13.503Z,0.00
2019-06-20T01:22:13.429Z,0.00
2019-06-20T01:23:13.409Z,0.00
2019-06-20T01:24:13.393Z,0.00
2019-06-20T01:25:13.393Z,0.00
2019-06-20T01:26:13.370Z,0.00
2019-06-20T01:27:13.383Z,0.00
2019-06-20T01:28:13.359Z,0.00
2019-06-20T01:29:13.339Z,0.00
2019-06-20T01:30:13.335Z,0.00
2019-06-20T01:31:13.323Z,0.00
2019-06-20T01:32:13.308Z,0.00
2019-06-20T01:33:13.342Z,0.00
2019-06-20T01:34:13.288Z,0.00
2019-06-20T01:35:13.279Z,0.00
2019-06-20T01:36:13.271Z,0.00
2019-06-20T01:37:13.327Z,0.00
2019-06-20T01:38:13.258Z,0.00
2019-06-20T01:39:13.234Z,0.00
2019-06-20T01:40:13.211Z,0.00
2019-06-20T01:41:13.208Z,0.00
2019-06-20T01:42:13.198Z,0.00
2019-06-20T01:43:13.256Z,0.00
2019-06-20T01:44:13.199Z,0.00
2019-06-20T01:45:13.175Z,0.00
2019-06-20T01:46:13.157Z,0.00
2019-06-20T01:47:13.139Z,0.00
2019-06-20T01:48:13.126Z,0.00
2019-06-20T01:49:13.145Z,0.00
2019-06-20T01:50:13.115Z,0.00
2019-06-20T01:51:13.153Z,0.00
2019-06-20T01:52:13.093Z,0.00
2019-06-20T01:53:13.094Z,0.00
2019-06-20T01:54:13.129Z,0.00
2019-06-20T01:55:13.060Z,0.00
2019-06-20T01:56:13.070Z,0.00
2019-06-20T01:57:13.031Z,0.00
2019-06-20T01:58:13.046Z,0.00
2019-06-20T01:59:13.011Z,0.00
2019-06-20T02:00:13.008Z,0.00
2019-06-20T02:01:12.985Z,0.00
2019-06-20T02:02:13.015Z,0.00
2019-06-20T02:03:12.973Z,0.00
2019-06-20T02:04:12.968Z,0.00
2019-06-20T02:05:12.940Z,0.00
2019-06-20T02:06:12.927Z,0.00
2019-06-20T02:07:12.932Z,0.00
2019-06-20T02:08:12.940Z,0.00
2019-06-20T02:09:12.902Z,0.00
2019-06-20T02:10:12.975Z,0.00
2019-06-20T02:11:12.875Z,0.00
2019-06-20T02:12:12.879Z,0.00
2019-06-20T02:13:12.864Z,0.00
2019-06-20T02:14:12.861Z,0.00
2019-06-20T02:15:12.820Z,0.00
2019-06-20T02:16:12.828Z,0.00
2019-06-20T02:17:12.813Z,0.00
2019-06-20T02:18:12.797Z,0.00
2019-06-20T02:19:12.804Z,0.00
2019-06-20T02:20:12.893Z,0.00
2019-06-20T02:21:12.771Z,0.00
2019-06-20T02:22:12.755Z,0.00
2019-06-20T02:23:12.738Z,0.00
2019-06-20T02:24:12.730Z,0.00
2019-06-20T02:25:12.744Z,0.00
2019-06-20T02:26:12.732Z,0.00
2019-06-20T02:27:12.715Z,0.00
2019-06-20T02:28:12.694Z,0.00
2019-06-20T02:29:12.756Z,0.00
2019-06-20T02:30:12.689Z,0.00
2019-06-20T02:31:12.658Z,0.00
2019-06-20T02:32:12.645Z,0.00
2019-06-20T02:33:12.660Z,0.00
2019-06-20T02:34:12.648Z,0.00
2019-06-20T02:35:12.606Z,0.00
2019-06-20T02:36:12.618Z,0.00
2019-06-20T02:37:12.586Z,0.00
2019-06-20T02:38:12.573Z,0.00
2019-06-20T02:39:12.569Z,0.00
2019-06-20T02:40:12.582Z,4.00
2019-06-20T02:41:12.556Z,4.00
2019-06-20T02:42:12.544Z,4.00
2019-06-20T02:43:12.527Z,4.00
2019-06-20T02:44:29.072Z,0.00
2019-06-20T02:45:13.589Z,4.00
2019-06-20T02:46:12.566Z,4.00
2019-06-20T02:47:12.485Z,8.00
2019-06-20T02:48:12.511Z,4.00
2019-06-20T02:49:12.460Z,8.00
2019-06-20T02:50:12.488Z,8.00
2019-06-20T02:51:12.442Z,8.00
2019-06-20T02:52:12.424Z,12.00
2019-06-20T02:53:12.416Z,12.00
2019-06-20T02:54:12.410Z,12.00
2019-06-20T02:55:12.418Z,16.00
2019-06-20T02:56:12.389Z,20.00
2019-06-20T02:57:12.370Z,20.00
2019-06-20T02:58:12.363Z,20.00
2019-06-20T02:59:12.357Z,28.00
2019-06-20T03:00:12.433Z,32.00
2019-06-20T03:01:12.325Z,32.00
2019-06-20T03:02:12.311Z,36.00
2019-06-20T03:03:12.321Z,40.00
2019-06-20T03:04:12.293Z,48.00
2019-06-20T03:05:12.280Z,48.00
2019-06-20T03:06:12.262Z,56.00
2019-06-20T03:07:12.259Z,60.00
2019-06-20T03:08:12.255Z,68.00
2019-06-20T03:09:12.263Z,76.00
2019-06-20T03:10:12.228Z,84.00
2019-06-20T03:11:12.214Z,88.00
2019-06-20T03:12:12.197Z,96.00
2019-06-20T03:13:12.219Z,108.00
2019-06-20T03:14:12.190Z,116.00
2019-06-20T03:15:12.173Z,128.00
2019-06-20T03:16:12.159Z,136.00
2019-06-20T03:17:12.179Z,144.00
2019-06-20T03:18:12.149Z,156.00
2019-06-20T03:19:12.124Z,168.00
2019-06-20T03:20:12.136Z,172.00
2019-06-20T03:21:12.108Z,188.00
2019-06-20T03:22:12.099Z,204.00
2019-06-20T03:23:12.120Z,216.00
2019-06-20T03:24:12.071Z,232.00
2019-06-20T03:25:12.061Z,248.00
2019-06-20T03:26:12.047Z,264.00
2019-06-20T03:27:12.058Z,284.00
2019-06-20T03:28:12.033Z,308.00
2019-06-20T03:29:12.208Z,336.00
2019-06-20T03:30:12.061Z,364.00
2019-06-20T03:31:12.010Z,384.00
2019-06-20T03:32:11.979Z,408.00
2019-06-20T03:33:12.142Z,424.00
2019-06-20T03:34:11.963Z,436.00
2019-06-20T03:35:11.951Z,448.00
2019-06-20T03:36:11.966Z,452.00
2019-06-20T03:37:11.921Z,456.00
2019-06-20T03:38:11.923Z,464.00
2019-06-20T03:39:11.915Z,472.00
2019-06-20T03:40:11.894Z,484.00
2019-06-20T03:41:11.889Z,500.00
2019-06-20T03:42:11.897Z,516.00
2019-06-20T03:43:11.854Z,528.00
2019-06-20T03:44:11.884Z,544.00
2019-06-20T03:45:11.867Z,560.00
2019-06-20T03:46:11.826Z,576.00
2019-06-20T03:47:11.821Z,596.00
2019-06-20T03:48:11.835Z,612.00
2019-06-20T03:49:11.795Z,636.00
2019-06-20T03:50:11.784Z,660.00
2019-06-20T03:51:11.778Z,688.00
2019-06-20T03:52:11.773Z,716.00
2019-06-20T03:53:11.748Z,748.00
2019-06-20T03:54:11.778Z,772.00
2019-06-20T03:55:11.736Z,804.00
2019-06-20T03:56:11.723Z,832.00
2019-06-20T03:57:11.716Z,856.00
2019-06-20T03:58:11.702Z,888.00
2019-06-20T03:59:11.682Z,916.00
2019-06-20T04:00:11.735Z,956.00
2019-06-20T04:01:11.663Z,988.00
2019-06-20T04:02:11.653Z,1024.00
2019-06-20T04:03:11.647Z,1060.00
2019-06-20T04:04:11.643Z,1100.00
2019-06-20T04:05:11.623Z,1148.00
2019-06-20T04:06:11.626Z,1204.00
2019-06-20T04:07:11.592Z,1264.00
2019-06-20T04:08:11.586Z,1320.00
2019-06-20T04:09:11.579Z,1420.00
2019-06-20T04:10:11.611Z,1596.00
2019-06-20T04:11:11.559Z,1684.00
2019-06-20T04:12:11.542Z,1876.00
2019-06-20T04:13:11.591Z,2012.00
2019-06-20T04:14:11.576Z,2100.00
2019-06-20T04:15:19.189Z,2284.00
2019-06-20T04:16:12.559Z,2844.00
2019-06-20T04:17:11.509Z,2492.00
2019-06-20T04:18:11.486Z,2368.00
2019-06-20T04:19:11.468Z,2216.00
2019-06-20T04:20:11.488Z,2348.00
2019-06-20T04:21:11.454Z,2604.00
2019-06-20T04:22:11.453Z,2756.00
2019-06-20T04:23:11.432Z,2736.00
2019-06-20T04:24:11.407Z,2836.00
2019-06-20T04:25:11.393Z,2976.00
2019-06-20T04:26:11.631Z,3496.00
2019-06-20T04:27:11.371Z,4752.00
2019-06-20T04:28:11.364Z,6472.00
2019-06-20T04:29:11.374Z,5856.00
2019-06-20T04:30:11.341Z,6628.00
2019-06-20T04:31:11.355Z,5016.00
2019-06-20T04:32:11.340Z,6392.00
2019-06-20T04:33:11.311Z,12864.00
2019-06-20T04:34:11.305Z,7836.00
2019-06-20T04:35:11.291Z,7816.00
2019-06-20T04:36:11.283Z,5272.00
2019-06-20T04:37:11.324Z,6792.00
2019-06-20T04:38:11.272Z,6972.00
2019-06-20T04:39:19.186Z,15136.00
2019-06-20T04:40:12.238Z,7148.00
2019-06-20T04:41:11.232Z,6748.00
2019-06-20T04:42:11.200Z,9352.00
2019-06-20T04:43:11.227Z,4892.00
2019-06-20T04:44:11.186Z,2664.00
2019-06-20T04:45:11.174Z,2584.00
2019-06-20T04:46:11.173Z,2688.00
2019-06-20T04:47:11.151Z,2888.00
2019-06-20T04:48:11.160Z,3064.00
2019-06-20T04:49:11.167Z,3276.00
2019-06-20T04:50:11.155Z,3308.00
2019-06-20T04:51:11.130Z,3356.00
2019-06-20T04:52:11.114Z,3460.00
2019-06-20T04:53:11.102Z,3620.00
2019-06-20T04:54:11.153Z,3788.00
2019-06-20T04:55:11.072Z,3972.00
2019-06-20T04:56:11.053Z,4152.00
2019-06-20T04:57:11.048Z,4268.00
2019-06-20T04:58:11.034Z,4368.00
2019-06-20T04:59:11.046Z,4484.00
2019-06-20T05:00:11.029Z,4564.00
2019-06-20T05:01:11.022Z,4720.00
2019-06-20T05:02:14.738Z,4676.00
2019-06-20T05:03:10.969Z,4632.00
2019-06-20T05:04:10.974Z,4540.00
2019-06-20T05:05:10.977Z,4520.00
2019-06-20T05:06:10.964Z,4480.00
2019-06-20T05:07:10.931Z,4340.00
2019-06-20T05:08:10.959Z,4280.00
2019-06-20T05:09:10.909Z,4144.00
2019-06-20T05:10:10.905Z,4040.00
2019-06-20T05:11:10.889Z,3984.00
2019-06-20T05:12:10.876Z,4168.00
2019-06-20T05:13:10.872Z,4588.00
2019-06-20T05:14:10.889Z,5172.00
2019-06-20T05:15:10.856Z,5920.00
2019-06-20T05:16:10.838Z,6632.00
2019-06-20T05:17:10.841Z,6924.00
2019-06-20T05:18:10.845Z,6660.00
2019-06-20T05:19:10.808Z,6272.00
2019-06-20T05:20:10.831Z,5976.00
2019-06-20T05:21:10.800Z,5720.00
2019-06-20T05:22:10.798Z,5424.00
2019-06-20T05:23:10.780Z,5104.00
2019-06-20T05:24:10.770Z,4824.00
2019-06-20T05:25:10.756Z,4660.00
2019-06-20T05:26:10.756Z,4472.00
2019-06-20T05:27:10.742Z,4388.00
2019-06-20T05:28:10.701Z,4316.00
2019-06-20T05:29:10.690Z,4160.00
2019-06-20T05:30:10.677Z,4072.00
2019-06-20T05:31:10.690Z,4128.00
2019-06-20T05:32:10.672Z,4096.00
2019-06-20T05:33:10.661Z,3912.00
2019-06-20T05:34:10.636Z,3692.00
2019-06-20T05:35:10.643Z,3508.00
2019-06-20T05:36:10.703Z,3372.00
2019-06-20T05:37:10.598Z,3160.00
2019-06-20T05:38:10.749Z,3060.00
2019-06-20T05:39:10.610Z,3116.00
2019-06-20T05:40:10.600Z,3232.00
2019-06-20T05:41:10.576Z,3428.00
2019-06-20T05:42:10.543Z,3668.00
2019-06-20T05:43:10.743Z,3824.00
2019-06-20T05:44:10.527Z,3992.00
2019-06-20T05:45:10.512Z,4052.00
2019-06-20T05:46:11.324Z,3972.00
2019-06-20T05:47:13.601Z,3856.00
2019-06-20T05:48:10.504Z,3932.00
2019-06-20T05:49:10.480Z,4224.00
2019-06-20T05:50:10.489Z,4484.00
2019-06-20T05:51:10.453Z,4752.00
2019-06-20T05:52:10.434Z,4848.00
2019-06-20T05:53:10.701Z,4980.00
2019-06-20T05:54:10.404Z,5032.00
2019-06-20T05:55:10.408Z,4872.00
2019-06-20T05:56:10.480Z,4796.00
2019-06-20T05:57:10.568Z,4832.00
2019-06-20T05:58:10.399Z,5092.00
2019-06-20T05:59:10.356Z,5380.00
2019-06-20T06:00:10.376Z,5676.00
2019-06-20T06:01:10.341Z,5860.00
2019-06-20T06:02:10.318Z,6316.00
2019-06-20T06:03:13.597Z,6332.00
2019-06-20T06:04:10.302Z,6396.00
2019-06-20T06:05:10.328Z,6104.00
2019-06-20T06:06:10.294Z,6308.00
2019-06-20T06:07:13.943Z,6548.00
2019-06-20T06:08:10.258Z,6412.00
2019-06-20T06:09:10.247Z,6396.00
2019-06-20T06:10:10.237Z,6444.00
2019-06-20T06:11:10.227Z,6172.00
2019-06-20T06:12:10.304Z,6020.00
2019-06-20T06:13:10.205Z,5828.00
2019-06-20T06:14:10.198Z,6152.00
2019-06-20T06:15:10.202Z,5960.00
2019-06-20T06:16:25.343Z,5960.00
2019-06-20T06:17:11.178Z,5400.00
2019-06-20T06:18:10.163Z,5380.00
2019-06-20T06:19:10.143Z,6028.00
2019-06-20T06:20:10.131Z,6456.00
2019-06-20T06:21:10.190Z,6948.00
2019-06-20T06:22:10.136Z,6940.00
2019-06-20T06:23:10.125Z,6128.00
2019-06-20T06:24:10.108Z,6920.00
2019-06-20T06:25:10.095Z,7124.00
2019-06-20T06:26:10.127Z,5232.00
2019-06-20T06:27:10.048Z,4128.00
2019-06-20T06:28:12.383Z,3216.00
2019-06-20T06:29:10.029Z,2888.00
2019-06-20T06:30:10.016Z,2812.00
2019-06-20T06:31:10.005Z,2820.00
2019-06-20T06:32:10.053Z,3420.00
2019-06-20T06:33:09.982Z,3932.00
2019-06-20T06:34:09.984Z,4404.00
2019-06-20T06:35:09.982Z,4464.00
2019-06-20T06:36:09.963Z,5024.00
2019-06-20T06:37:09.985Z,5324.00
2019-06-20T06:38:09.936Z,5156.00
2019-06-20T06:39:09.923Z,5480.00
2019-06-20T06:40:09.906Z,5484.00
2019-06-20T06:41:09.896Z,5692.00
2019-06-20T06:42:09.905Z,5348.00
2019-06-20T06:43:09.903Z,5216.00
2019-06-20T06:44:09.870Z,5048.00
2019-06-20T06:45:09.855Z,4660.00
2019-06-20T06:46:09.849Z,4960.00
2019-06-20T06:47:09.853Z,4596.00
2019-06-20T06:48:09.904Z,4512.00
2019-06-20T06:49:09.877Z,4620.00
2019-06-20T06:50:09.790Z,5288.00
2019-06-20T06:51:09.787Z,5796.00
2019-06-20T06:52:09.798Z,5584.00
2019-06-20T06:53:09.781Z,5192.00
2019-06-20T06:54:09.747Z,5776.00
2019-06-20T06:55:09.755Z,7076.00
2019-06-20T06:56:09.767Z,7340.00
2019-06-20T06:57:09.722Z,7296.00
2019-06-20T06:58:09.708Z,7936.00
2019-06-20T06:59:09.711Z,8860.00
2019-06-20T07:00:09.678Z,9328.00
2019-06-20T07:01:10.370Z,9388.00
2019-06-20T07:02:09.702Z,9944.00
2019-06-20T07:03:09.674Z,10568.00
2019-06-20T07:04:09.676Z,11256.00
2019-06-20T07:05:09.657Z,11308.00
2019-06-20T07:06:09.645Z,11840.00
2019-06-20T07:07:09.629Z,12296.00
2019-06-20T07:08:09.692Z,12888.00
2019-06-20T07:09:09.598Z,13468.00
2019-06-20T07:10:09.574Z,13956.00
2019-06-20T07:11:09.582Z,14160.00
2019-06-20T07:12:09.558Z,14108.00
2019-06-20T07:13:09.582Z,14064.00
2019-06-20T07:14:09.537Z,14188.00
2019-06-20T07:15:09.521Z,13976.00
2019-06-20T07:16:09.514Z,13696.00
2019-06-20T07:17:09.496Z,13688.00
2019-06-20T07:18:09.502Z,13756.00
2019-06-20T07:19:09.511Z,13804.00
2019-06-20T07:20:09.467Z,14060.00
2019-06-20T07:21:09.571Z,14256.00
2019-06-20T07:22:09.444Z,14396.00
2019-06-20T07:23:09.445Z,14352.00
2019-06-20T07:24:09.448Z,14124.00
2019-06-20T07:25:09.470Z,13728.00
2019-06-20T07:26:09.405Z,13572.00
2019-06-20T07:27:09.393Z,13664.00
2019-06-20T07:28:09.380Z,13880.00
2019-06-20T07:29:09.382Z,13968.00
2019-06-20T07:30:09.391Z,13876.00
2019-06-20T07:31:09.377Z,13804.00
2019-06-20T07:32:09.345Z,13608.00
2019-06-20T07:33:09.352Z,13432.00
2019-06-20T07:34:09.329Z,13428.00
2019-06-20T07:35:09.309Z,13260.00
2019-06-20T07:36:09.300Z,13104.00
2019-06-20T07:37:09.272Z,12988.00
2019-06-20T07:38:09.289Z,13100.00
2019-06-20T07:39:09.261Z,13188.00
2019-06-20T07:40:09.250Z,13296.00
2019-06-20T07:41:09.226Z,13484.00
2019-06-20T07:42:09.225Z,13668.00
2019-06-20T07:43:09.212Z,13816.00
2019-06-20T07:44:09.247Z,14112.00
2019-06-20T07:45:09.204Z,14436.00
2019-06-20T07:46:09.182Z,14684.00
2019-06-20T07:47:17.700Z,14932.00
2019-06-20T07:48:10.166Z,14992.00
2019-06-20T07:49:09.181Z,15060.00
2019-06-20T07:50:09.156Z,15224.00
2019-06-20T07:51:09.134Z,15332.00
2019-06-20T07:52:09.120Z,15284.00
2019-06-20T07:53:09.116Z,15204.00
2019-06-20T07:54:09.102Z,15224.00
2019-06-20T07:55:09.084Z,15384.00
2019-06-20T07:56:09.610Z,15740.00
2019-06-20T07:57:09.076Z,16128.00
2019-06-20T07:58:09.086Z,16512.00
2019-06-20T07:59:09.036Z,16544.00
2019-06-20T08:00:09.049Z,16576.00
2019-06-20T08:01:09.016Z,16576.00
2019-06-20T08:02:09.005Z,16116.00
2019-06-20T08:03:09.041Z,15772.00
2019-06-20T08:04:08.982Z,15832.00
2019-06-20T08:05:08.970Z,16180.00
2019-06-20T08:06:08.986Z,16480.00
2019-06-20T08:07:08.953Z,16576.00
2019-06-20T08:08:08.930Z,16544.00
2019-06-20T08:09:08.952Z,16416.00
2019-06-20T08:10:08.936Z,16320.00
2019-06-20T08:11:08.899Z,16160.00
2019-06-20T08:12:08.886Z,15888.00
2019-06-20T08:13:08.876Z,15452.00
2019-06-20T08:14:08.919Z,15224.00
2019-06-20T08:15:15.195Z,15076.00
2019-06-20T08:16:09.893Z,15032.00
2019-06-20T08:17:08.841Z,15100.00
2019-06-20T08:18:08.837Z,15424.00
2019-06-20T08:19:08.807Z,15484.00
2019-06-20T08:20:08.824Z,15428.00
2019-06-20T08:21:08.809Z,15560.00
2019-06-20T08:22:08.827Z,15540.00
2019-06-20T08:23:08.786Z,15516.00
2019-06-20T08:24:08.758Z,15336.00
2019-06-20T08:25:08.794Z,15332.00
2019-06-20T08:26:08.804Z,15208.00
2019-06-20T08:27:08.743Z,15252.00
2019-06-20T08:28:08.727Z,15344.00
2019-06-20T08:29:20.121Z,15384.00
2019-06-20T08:30:09.791Z,15544.00
2019-06-20T08:31:08.684Z,15744.00
2019-06-20T08:32:08.696Z,15988.00
2019-06-20T08:33:11.844Z,16100.00
2019-06-20T08:34:08.662Z,16200.00
2019-06-20T08:35:08.661Z,16188.00
2019-06-20T08:36:08.673Z,16172.00
2019-06-20T08:37:08.616Z,16140.00
2019-06-20T08:38:08.651Z,16128.00
2019-06-20T08:39:08.599Z,16416.00
2019-06-20T08:40:08.599Z,16608.00
2019-06-20T08:41:08.588Z,16800.00
2019-06-20T08:42:08.572Z,17248.00
2019-06-20T08:43:08.615Z,17728.00
2019-06-20T08:44:08.543Z,18336.00
2019-06-20T08:45:08.548Z,19072.00
2019-06-20T08:46:10.366Z,19552.00
2019-06-20T08:47:08.514Z,19808.00
2019-06-20T08:48:08.501Z,19616.00
2019-06-20T08:49:08.546Z,19456.00
2019-06-20T08:50:08.485Z,19456.00
2019-06-20T08:51:08.470Z,19680.00
2019-06-20T08:52:08.458Z,19904.00
2019-06-20T08:53:08.454Z,19872.00
2019-06-20T08:54:08.434Z,19584.00
2019-06-20T08:55:08.489Z,19328.00
2019-06-20T08:56:08.422Z,19232.00
2019-06-20T08:57:08.413Z,19008.00
2019-06-20T08:58:08.421Z,19136.00
2019-06-20T08:59:20.677Z,19584.00
2019-06-20T09:00:09.406Z,20320.00
2019-06-20T09:02:08.457Z,20992.00
2019-06-20T09:03:08.345Z,20960.00
2019-06-20T09:04:08.351Z,20768.00
2019-06-20T09:05:08.447Z,20576.00
2019-06-20T09:06:08.315Z,20384.00
2019-06-20T09:07:08.334Z,19840.00
2019-06-20T09:08:11.336Z,18976.00
2019-06-20T09:09:08.306Z,18112.00
2019-06-20T09:10:08.267Z,15848.00
2019-06-20T09:11:08.257Z,14184.00
2019-06-20T09:12:08.249Z,14304.00
2019-06-20T09:13:08.277Z,15412.00
2019-06-20T09:14:08.242Z,15268.00
2019-06-20T09:15:08.290Z,15204.00
2019-06-20T09:16:08.234Z,15904.00
2019-06-20T09:17:08.188Z,17696.00
2019-06-20T09:18:08.180Z,20160.00
2019-06-20T09:19:08.181Z,21632.00
2019-06-20T09:20:08.159Z,22208.00
2019-06-20T09:21:08.166Z,22272.00
2019-06-20T09:22:08.174Z,22112.00
2019-06-20T09:23:08.120Z,22176.00
2019-06-20T09:24:08.114Z,22304.00
2019-06-20T09:25:08.110Z,22272.00
2019-06-20T09:26:08.102Z,22048.00
2019-06-20T09:27:08.086Z,21760.00
2019-06-20T09:28:08.161Z,21664.00
2019-06-20T09:29:08.074Z,21600.00
2019-06-20T09:30:08.062Z,21824.00
2019-06-20T09:31:08.267Z,21664.00
2019-06-20T09:32:08.041Z,21344.00
2019-06-20T09:33:08.038Z,21056.00
2019-06-20T09:34:08.006Z,20736.00
2019-06-20T09:35:08.024Z,20544.00
2019-06-20T09:36:08.064Z,20064.00
2019-06-20T09:37:08.001Z,19072.00
2019-06-20T09:38:07.991Z,18336.00
2019-06-20T09:39:07.977Z,18048.00
2019-06-20T09:40:07.965Z,18432.00
2019-06-20T09:41:07.950Z,19136.00
2019-06-20T09:42:07.938Z,19680.00
2019-06-20T09:43:07.920Z,20736.00
2019-06-20T09:44:07.894Z,21888.00
2019-06-20T09:45:07.929Z,22816.00
2019-06-20T09:46:07.902Z,23200.00
2019-06-20T09:47:07.862Z,23360.00
2019-06-20T09:48:07.881Z,23296.00
2019-06-20T09:49:07.848Z,23008.00
2019-06-20T09:50:07.855Z,22848.00
2019-06-20T09:51:07.835Z,23008.00
2019-06-20T09:52:07.826Z,23008.00
2019-06-20T09:53:07.831Z,23296.00
2019-06-20T09:54:07.821Z,23360.00
2019-06-20T09:55:07.781Z,23264.00
2019-06-20T09:56:07.807Z,23072.00
2019-06-20T09:57:07.768Z,23008.00
2019-06-20T09:58:07.761Z,22912.00
2019-06-20T09:59:07.759Z,22720.00
2019-06-20T10:00:10.611Z,22208.00
2019-06-20T10:01:07.722Z,21760.00
2019-06-20T10:02:07.696Z,21568.00
2019-06-20T10:03:07.693Z,21344.00
2019-06-20T10:04:07.749Z,21536.00
2019-06-20T10:05:07.691Z,21728.00
2019-06-20T10:06:13.927Z,22080.00
2019-06-20T10:07:08.659Z,22688.00
2019-06-20T10:08:07.644Z,23264.00
2019-06-20T10:09:07.642Z,23552.00
2019-06-20T10:10:07.642Z,23488.00
2019-06-20T10:11:07.630Z,23168.00
2019-06-20T10:12:07.636Z,22656.00
2019-06-20T10:13:07.592Z,21856.00
2019-06-20T10:14:07.585Z,22560.00
2019-06-20T10:15:07.571Z,23584.00
2019-06-20T10:16:07.608Z,23936.00
2019-06-20T10:17:07.602Z,24960.00
2019-06-20T10:18:07.550Z,25440.00
2019-06-20T10:19:07.523Z,25504.00
2019-06-20T10:20:07.514Z,24768.00
2019-06-20T10:21:07.502Z,23424.00
2019-06-20T10:22:07.479Z,23296.00
2019-06-20T10:23:07.510Z,23200.00
2019-06-20T10:24:07.467Z,23680.00
2019-06-20T10:25:07.464Z,23680.00
2019-06-20T10:26:07.451Z,22208.00
2019-06-20T10:27:07.437Z,21056.00
2019-06-20T10:28:07.423Z,20288.00
2019-06-20T10:29:07.446Z,18656.00
2019-06-20T10:30:14.452Z,17888.00
2019-06-20T10:31:08.481Z,16608.00
2019-06-20T10:32:07.381Z,15512.00
2019-06-20T10:33:07.374Z,16288.00
2019-06-20T10:34:07.376Z,17280.00
2019-06-20T10:35:07.359Z,17440.00
2019-06-20T10:36:07.352Z,18112.00
2019-06-20T10:37:07.355Z,18432.00
2019-06-20T10:38:07.318Z,18080.00
2019-06-20T10:39:07.350Z,17024.00
2019-06-20T10:40:07.348Z,15344.00
2019-06-20T10:41:07.333Z,13988.00
2019-06-20T10:42:07.313Z,13348.00
2019-06-20T10:43:07.294Z,12580.00
2019-06-20T10:44:07.261Z,11504.00
2019-06-20T10:45:07.269Z,12240.00
2019-06-20T10:46:07.350Z,13972.00
2019-06-20T10:47:07.233Z,14084.00
2019-06-20T10:48:07.208Z,12872.00
2019-06-20T10:49:07.192Z,10712.00
2019-06-20T10:50:07.236Z,8356.00
2019-06-20T10:51:07.193Z,6524.00
2019-06-20T10:52:07.194Z,6124.00
2019-06-20T10:53:07.173Z,6748.00
2019-06-20T10:54:15.402Z,8176.00
2019-06-20T10:55:07.348Z,10160.00
2019-06-20T10:56:07.203Z,12036.00
2019-06-20T10:57:07.182Z,13140.00
2019-06-20T10:58:07.281Z,14620.00
2019-06-20T10:59:07.089Z,15988.00
2019-06-20T11:00:07.118Z,17216.00
2019-06-20T11:01:07.064Z,17984.00
2019-06-20T11:02:07.390Z,17920.00
2019-06-20T11:03:07.068Z,16992.00
2019-06-20T11:04:07.043Z,17280.00
2019-06-20T11:05:07.039Z,17760.00
2019-06-20T11:06:07.083Z,17728.00
2019-06-20T11:07:06.996Z,18624.00
2019-06-20T11:08:07.015Z,19328.00
2019-06-20T11:09:07.018Z,19648.00
2019-06-20T11:10:06.977Z,20640.00
2019-06-20T11:11:06.958Z,21792.00
2019-06-20T11:12:06.955Z,22656.00
2019-06-20T11:13:06.970Z,23424.00
2019-06-20T11:14:06.934Z,23968.00
2019-06-20T11:15:06.943Z,23872.00
2019-06-20T11:16:06.921Z,23488.00
2019-06-20T11:17:06.911Z,22464.00
2019-06-20T11:18:06.880Z,21376.00
2019-06-20T11:19:06.908Z,20384.00
2019-06-20T11:20:06.885Z,21056.00
2019-06-20T11:21:06.852Z,22496.00
2019-06-20T11:22:06.841Z,22784.00
2019-06-20T11:23:06.824Z,21856.00
2019-06-20T11:24:06.821Z,20704.00
2019-06-20T11:25:06.854Z,19840.00
2019-06-20T11:26:06.845Z,19744.00
2019-06-20T11:27:06.784Z,21088.00
2019-06-20T11:28:06.778Z,23040.00
2019-06-20T11:29:06.767Z,22688.00
2019-06-20T11:30:06.751Z,20256.00
2019-06-20T11:31:06.753Z,18208.00
2019-06-20T11:32:06.764Z,17888.00
2019-06-20T11:33:06.717Z,17632.00
2019-06-20T11:34:06.715Z,17920.00
2019-06-20T11:35:06.726Z,18816.00
2019-06-20T11:36:06.682Z,17024.00
2019-06-20T11:37:06.683Z,14768.00
2019-06-20T11:38:06.677Z,11576.00
2019-06-20T11:39:06.676Z,9308.00
2019-06-20T11:40:06.666Z,8284.00
2019-06-20T11:41:06.684Z,7268.00
2019-06-20T11:42:06.628Z,6112.00
2019-06-20T11:43:06.682Z,6008.00
2019-06-20T11:44:06.601Z,6884.00
2019-06-20T11:45:06.594Z,7844.00
2019-06-20T11:46:06.631Z,8220.00
2019-06-20T11:47:06.588Z,8204.00
2019-06-20T11:48:06.578Z,8108.00
2019-06-20T11:49:06.553Z,8128.00
2019-06-20T11:50:06.540Z,8140.00
2019-06-20T11:51:06.525Z,8184.00
2019-06-20T11:52:06.536Z,8656.00
2019-06-20T11:53:06.528Z,9336.00
2019-06-20T11:54:06.548Z,9932.00
2019-06-20T11:55:06.481Z,10412.00
2019-06-20T11:56:06.483Z,11056.00
2019-06-20T11:57:06.465Z,12064.00
2019-06-20T11:58:06.501Z,13816.00
2019-06-20T11:59:06.471Z,16224.00
2019-06-20T12:00:06.452Z,19168.00
2019-06-20T12:01:06.462Z,20480.00
2019-06-20T12:02:06.410Z,20544.00
2019-06-20T12:03:06.397Z,19200.00
2019-06-20T12:04:09.366Z,17696.00
2019-06-20T12:05:06.395Z,16320.00
2019-06-20T12:06:06.376Z,15028.00
2019-06-20T12:07:06.354Z,13748.00
2019-06-20T12:08:06.341Z,12624.00
2019-06-20T12:09:06.332Z,11584.00
2019-06-20T12:10:06.373Z,10896.00
2019-06-20T12:11:06.363Z,10676.00
2019-06-20T12:12:06.309Z,10860.00
2019-06-20T12:13:06.346Z,11272.00
2019-06-20T12:14:06.278Z,11888.00
2019-06-20T12:15:07.155Z,13056.00
2019-06-20T12:16:06.280Z,15124.00